createdAt,value
2023-03-14T00:02:02.149Z,1.10
2023-03-14T00:07:04.412Z,1.20
2023-03-14T00:12:07.841Z,1.10
2023-03-14T00:17:09.683Z,1.10
2023-03-14T00:22:11.355Z,1.02
2023-03-14T00:27:13.039Z,0.70
2023-03-14T00:32:14.679Z,1.00
2023-03-14T00:37:16.883Z,0.93
2023-03-14T00:42:18.677Z,0.60
2023-03-14T00:47:20.308Z,0.60
2023-03-14T00:52:21.968Z,0.70
2023-03-14T00:57:23.661Z,0.60
2023-03-14T01:02:25.389Z,0.50
2023-03-14T01:07:27.153Z,0.63
2023-03-14T01:12:28.930Z,0.60
2023-03-14T01:17:30.590Z,0.60
2023-03-14T01:22:32.721Z,0.50
2023-03-14T01:27:34.746Z,0.60
2023-03-14T01:32:37.066Z,0.60
2023-03-14T01:37:38.901Z,0.60
2023-03-14T01:42:57.231Z,0.50
2023-03-14T01:47:59.230Z,0.60
2023-03-14T01:53:01.323Z,0.50
2023-03-14T01:58:06.090Z,0.50
2023-03-14T02:03:15.194Z,0.57
2023-03-14T02:08:20.502Z,0.70
2023-03-14T02:13:44.277Z,0.52
2023-03-14T02:19:03.881Z,0.50
2023-03-14T02:24:34.766Z,0.50
2023-03-14T02:29:50.426Z,0.50
2023-03-14T02:34:58.505Z,0.50
2023-03-14T02:40:01.296Z,0.50
2023-03-14T02:45:09.289Z,0.50
2023-03-14T02:50:18.951Z,0.57
2023-03-14T02:55:26.524Z,0.80
2023-03-14T03:00:31.696Z,0.70
2023-03-14T03:05:34.375Z,0.60
2023-03-14T03:10:37.717Z,0.60
2023-03-14T03:15:41.952Z,0.70
2023-03-14T03:20:43.938Z,0.70
2023-03-14T03:25:50.798Z,0.70
2023-03-14T03:30:52.796Z,0.50
2023-03-14T03:35:54.928Z,0.60
2023-03-14T03:41:07.016Z,0.70
2023-03-14T03:46:08.929Z,0.70
2023-03-14T03:51:15.106Z,0.50
2023-03-14T03:56:17.094Z,0.60
2023-03-14T04:06:24.813Z,0.63
2023-03-14T04:11:30.545Z,0.65
2023-03-14T04:16:51.652Z,0.60
2023-03-14T04:21:55.580Z,0.80
2023-03-14T04:27:00.743Z,0.70
2023-03-14T04:32:02.919Z,0.68
2023-03-14T04:37:04.679Z,0.57
2023-03-14T04:42:11.852Z,0.70
2023-03-14T04:47:14.250Z,1.15
2023-03-14T04:52:17.664Z,0.80
2023-03-14T04:57:22.509Z,0.50
2023-03-14T05:02:25.087Z,0.60
2023-03-14T05:07:36.388Z,0.40
2023-03-14T05:13:10.192Z,0.77
2023-03-14T05:18:30.318Z,0.50
2023-03-14T05:24:01.186Z,0.50
2023-03-14T05:29:35.209Z,0.50
2023-03-14T05:34:44.586Z,0.90
2023-03-14T05:39:56.392Z,0.52
2023-03-14T05:45:16.029Z,0.50
2023-03-14T05:50:26.942Z,0.88
2023-03-14T05:55:58.429Z,0.70
2023-03-14T06:01:16.737Z,0.90
2023-03-14T06:06:37.058Z,1.00
2023-03-14T06:11:38.978Z,0.60
2023-03-14T06:16:42.156Z,1.00
2023-03-14T06:21:45.917Z,0.70
2023-03-14T06:26:48.052Z,0.80
2023-03-14T06:31:50.315Z,2.50
2023-03-14T06:36:53.938Z,2.40
2023-03-14T06:41:56.161Z,0.90
2023-03-14T06:46:58.195Z,0.60
2023-03-14T06:52:01.199Z,0.88
2023-03-14T06:57:05.477Z,2.92
2023-03-14T07:02:13.492Z,2.78
2023-03-14T07:07:17.555Z,1.13
2023-03-14T07:12:19.716Z,4.40
2023-03-14T07:17:21.387Z,2.97
2023-03-14T07:22:23.193Z,4.25
2023-03-14T07:27:24.964Z,3.25
2023-03-14T07:32:26.888Z,1.20
2023-03-14T07:37:28.780Z,1.80
2023-03-14T07:42:30.962Z,1.05
2023-03-14T07:47:58.404Z,0.63
2023-03-14T07:53:00.223Z,0.80
2023-03-14T07:58:02.751Z,0.60
2023-03-14T08:03:04.558Z,0.77
2023-03-14T08:08:06.800Z,0.70
2023-03-14T08:13:09.780Z,0.60
2023-03-14T08:18:11.608Z,0.70
2023-03-14T08:23:13.502Z,0.70
2023-03-14T08:28:15.248Z,0.60
2023-03-14T08:33:18.023Z,0.68
2023-03-14T08:38:20.279Z,0.55
2023-03-14T08:43:22.005Z,0.75
2023-03-14T08:48:23.751Z,0.68
2023-03-14T08:53:25.410Z,0.77
2023-03-14T08:58:27.290Z,0.80
2023-03-14T09:03:29.677Z,0.70
2023-03-14T09:08:31.845Z,0.60
2023-03-14T09:13:33.610Z,0.60
2023-03-14T09:18:35.386Z,0.65
2023-03-14T09:23:37.073Z,0.70
2023-03-14T09:28:38.745Z,0.70
2023-03-14T09:33:40.427Z,0.60
2023-03-14T09:38:42.175Z,0.70
2023-03-14T09:43:46.296Z,0.60
2023-03-14T09:48:48.268Z,0.70
2023-03-14T09:53:51.172Z,0.70
2023-03-14T10:04:01.673Z,0.52
2023-03-14T10:09:04.435Z,0.70
2023-03-14T10:14:09.134Z,0.65
2023-03-14T10:19:14.036Z,0.60
2023-03-14T10:24:23.192Z,0.60
2023-03-14T10:29:25.104Z,0.85
2023-03-14T10:34:31.147Z,0.60
2023-03-14T10:39:46.162Z,0.65
2023-03-14T10:44:54.772Z,0.70
2023-03-14T10:49:58.301Z,0.63
2023-03-14T10:55:10.581Z,0.60
2023-03-14T11:00:18.559Z,0.82
2023-03-14T11:05:21.045Z,0.65
2023-03-14T11:10:36.405Z,0.60
2023-03-14T11:15:54.761Z,0.60
2023-03-14T11:21:07.751Z,0.70
2023-03-14T11:26:40.709Z,0.70
2023-03-14T11:31:45.418Z,0.60
2023-03-14T11:37:00.342Z,0.80
2023-03-14T11:42:04.818Z,0.60
2023-03-14T11:47:19.926Z,0.60
2023-03-14T11:52:28.025Z,0.60
2023-03-14T11:57:29.781Z,0.50
2023-03-14T12:02:31.526Z,0.70
2023-03-14T12:07:58.719Z,0.80
2023-03-14T12:13:00.785Z,0.55
2023-03-14T12:18:02.487Z,0.70
2023-03-14T12:23:11.170Z,0.70
2023-03-14T12:28:22.017Z,0.60
2023-03-14T12:33:31.468Z,0.63
2023-03-14T12:38:58.891Z,0.80
2023-03-14T12:44:29.446Z,0.70
2023-03-14T12:49:33.084Z,0.57
2023-03-14T12:54:58.596Z,0.50
2023-03-14T13:00:05.394Z,0.50
2023-03-14T13:05:12.133Z,0.50
2023-03-14T13:10:23.518Z,0.50
2023-03-14T13:15:39.024Z,0.60
2023-03-14T13:20:52.435Z,0.60
2023-03-14T13:25:54.966Z,0.50
2023-03-14T13:31:03.183Z,0.50
2023-03-14T13:36:06.691Z,0.60
2023-03-14T13:41:09.199Z,0.70
2023-03-14T13:46:26.202Z,0.50
2023-03-14T13:51:32.579Z,0.70
2023-03-14T13:56:34.512Z,0.50
2023-03-14T14:01:39.499Z,0.53
2023-03-14T14:07:08.916Z,0.70
2023-03-14T14:12:53.004Z,0.60
2023-03-14T14:18:00.177Z,0.70
2023-03-14T14:23:03.965Z,0.85
2023-03-14T14:28:27.754Z,0.60
2023-03-14T14:33:29.525Z,0.60
2023-03-14T14:38:31.517Z,0.50
2023-03-14T14:43:39.715Z,0.50
2023-03-14T14:48:41.537Z,0.88
2023-03-14T14:53:44.271Z,0.50
2023-03-14T15:03:52.424Z,0.70
2023-03-14T15:08:54.311Z,0.70
2023-03-14T15:13:56.089Z,0.70
2023-03-14T15:19:00.816Z,0.50
2023-03-14T15:24:03.017Z,0.98
2023-03-14T15:29:08.949Z,0.60
2023-03-14T15:34:11.489Z,0.70
2023-03-14T15:39:13.630Z,0.80
2023-03-14T15:44:15.341Z,0.82
2023-03-14T15:49:17.080Z,1.00
2023-03-14T15:54:18.758Z,0.90
2023-03-14T15:59:20.619Z,0.80
2023-03-14T16:04:22.335Z,1.30
2023-03-14T16:09:25.771Z,0.90
2023-03-14T16:14:27.596Z,0.95
2023-03-14T16:19:31.681Z,0.75
2023-03-14T16:24:33.404Z,0.90
2023-03-14T16:29:35.263Z,0.80
2023-03-14T16:34:42.379Z,1.10
2023-03-14T16:40:07.404Z,0.98
2023-03-14T16:45:06.415Z,1.00
2023-03-14T16:50:08.561Z,1.40
2023-03-14T16:55:10.791Z,1.00
2023-03-14T17:00:13.165Z,0.80
2023-03-14T17:05:14.997Z,1.00
2023-03-14T17:10:17.548Z,1.00
2023-03-14T17:15:19.260Z,1.25
2023-03-14T17:20:21.240Z,0.95
2023-03-14T17:25:25.500Z,1.00
2023-03-14T17:30:27.240Z,1.10
2023-03-14T17:35:29.050Z,1.08
2023-03-14T17:40:31.496Z,1.00
2023-03-14T17:45:33.692Z,1.30
2023-03-14T17:50:36.286Z,1.38
2023-03-14T17:55:38.110Z,1.15
2023-03-14T18:00:41.397Z,1.33
2023-03-14T18:05:43.790Z,1.00
2023-03-14T18:10:45.831Z,1.15
2023-03-14T18:15:55.258Z,0.97
2023-03-14T18:20:58.127Z,1.17
2023-03-14T18:31:06.535Z,1.07
2023-03-14T18:36:09.621Z,1.10
2023-03-14T18:41:13.888Z,1.33
2023-03-14T18:46:16.274Z,1.40
2023-03-14T18:51:18.184Z,1.07
2023-03-14T18:56:19.871Z,1.20
2023-03-14T19:01:22.645Z,1.50
2023-03-14T19:06:25.031Z,2.15
2023-03-14T19:11:26.792Z,1.70
2023-03-14T19:16:28.641Z,1.80
2023-03-14T19:21:34.040Z,1.70
2023-03-14T19:26:36.690Z,1.88
2023-03-14T19:31:38.395Z,1.70
2023-03-14T19:36:40.260Z,1.75
2023-03-14T19:41:42.382Z,2.30
2023-03-14T19:46:44.434Z,1.70
2023-03-14T19:51:46.128Z,1.98
2023-03-14T19:56:49.142Z,2.17
2023-03-14T20:01:52.523Z,2.70
2023-03-14T20:06:54.184Z,2.05
2023-03-14T20:11:55.946Z,1.70
2023-03-14T20:16:58.073Z,1.53
2023-03-14T20:22:02.781Z,1.40
2023-03-14T20:27:06.058Z,1.63
2023-03-14T20:32:09.478Z,1.30
2023-03-14T20:37:13.494Z,1.50
2023-03-14T20:42:15.933Z,1.60
2023-03-14T20:47:17.620Z,1.33
2023-03-14T20:52:19.634Z,1.50
2023-03-14T20:57:21.367Z,1.57
2023-03-14T21:02:23.288Z,1.43
2023-03-14T21:07:24.928Z,1.20
2023-03-14T21:12:26.648Z,1.13
2023-03-14T21:17:28.371Z,1.10
2023-03-14T21:22:30.345Z,1.00
2023-03-14T21:27:32.679Z,1.20
2023-03-14T21:32:34.534Z,1.10
2023-03-14T21:37:36.505Z,1.10
2023-03-14T21:42:38.333Z,1.23
2023-03-14T21:47:41.666Z,1.20
2023-03-14T21:52:46.326Z,1.20
2023-03-14T21:57:49.187Z,1.10
2023-03-14T22:08:16.149Z,1.23
2023-03-14T22:13:18.726Z,1.25
2023-03-14T22:18:20.408Z,0.98
2023-03-14T22:23:22.089Z,1.08
2023-03-14T22:28:23.783Z,1.20
2023-03-14T22:33:25.699Z,1.48
2023-03-14T22:38:27.551Z,1.25
2023-03-14T22:43:30.299Z,1.25
2023-03-14T22:48:32.745Z,1.30
2023-03-14T22:53:34.869Z,1.55
2023-03-14T22:58:36.642Z,1.50
2023-03-14T23:03:38.403Z,1.63
2023-03-14T23:08:40.144Z,1.73
2023-03-14T23:13:42.755Z,1.50
2023-03-14T23:18:44.456Z,1.33
2023-03-14T23:23:47.921Z,1.70
2023-03-14T23:28:50.789Z,1.75
2023-03-14T23:38:54.096Z,1.80
2023-03-14T23:43:55.805Z,1.92
2023-03-14T23:48:58.271Z,2.20
2023-03-14T23:53:59.981Z,2.00
2023-03-14T23:59:01.744Z,2.00
